Time;durP1;ratioP1;P1;durP2;ratioP2;P2;SDS_P1;SDS_P2;PMS_P1;PMS_P2;Temp;Humidity;BMP_temperature;BMP_pressure;BME280_temperature;BME280_humidity;BME280_pressure;Samples;Min_cycle;Max_cycle;Signal;HPM_P1;HPM_P2
2023/09/07 00:01:13;;;;;;;;;;;26.20;1.00;;;;;;4973412;28;19961;-62
2023/09/07 00:03:40;;;;;;;;;;;26.20;1.00;;;;;;4973666;28;20310;-60
2023/09/07 00:06:08;;;;;;;;;;;26.20;1.00;;;;;;4974054;28;19929;-62
2023/09/07 00:08:35;;;;;;;;;;;26.20;1.00;;;;;;4981535;28;19941;-63
2023/09/07 00:11:03;;;;;;;;;;;26.20;1.00;;;;;;4973318;28;20017;-63
2023/09/07 00:13:30;;;;;;;;;;;26.20;1.00;;;;;;4981490;28;20382;-63
2023/09/07 00:15:58;;;;;;;;;;;26.20;1.00;;;;;;4978780;28;19980;-61
2023/09/07 00:18:25;;;;;;;;;;;26.20;1.00;;;;;;4975604;28;19957;-61
2023/09/07 00:20:52;;;;;;;;;;;26.20;1.00;;;;;;4978484;28;20381;-63
2023/09/07 00:23:19;;;;;;;;;;;26.20;1.00;;;;;;4976274;28;19926;-61
2023/09/07 00:25:46;;;;;;;;;;;26.20;1.00;;;;;;4973099;28;19926;-62
2023/09/07 00:28:13;;;;;;;;;;;26.20;1.00;;;;;;4973383;28;19965;-62
2023/09/07 00:30:40;;;;;;;;;;;26.20;1.00;;;;;;4973074;28;19926;-62
2023/09/07 00:33:07;;;;;;;;;;;26.20;1.00;;;;;;4971999;28;20386;-63
2023/09/07 00:38:23;;;;;;;;;;;26.20;1.00;;;;;;4955463;26;19977;-63
2023/09/07 00:40:50;;;;;;;;;;;26.10;1.00;;;;;;4957501;28;19930;-63
2023/09/07 00:43:16;;;;;;;;;;;26.10;1.00;;;;;;4957372;28;19927;-63
2023/09/07 00:45:43;;;;;;;;;;;26.10;1.00;;;;;;4966991;28;20399;-63
2023/09/07 00:48:13;;;;;;;;;;;26.10;1.00;;;;;;4936936;29;19934;-63
2023/09/07 00:50:40;;;;;;;;;;;26.10;1.00;;;;;;4953743;29;20386;-63
2023/09/07 00:53:07;;;;;;;;;;;26.10;1.00;;;;;;4938956;29;19934;-63
2023/09/07 00:55:35;;;;;;;;;;;26.10;1.00;;;;;;4939815;29;19934;-63
2023/09/07 00:58:05;;;;;;;;;;;26.10;1.00;;;;;;4957271;29;19933;-63
2023/09/07 01:00:32;;;;;;;;;;;26.10;1.00;;;;;;4940199;29;20361;-63
2023/09/07 01:02:59;;;;;;;;;;;26.10;1.00;;;;;;4940160;29;19990;-63
2023/09/07 01:05:30;;;;;;;;;;;26.10;1.00;;;;;;4939746;29;19927;-63
2023/09/07 01:10:39;;;;;;;;;;;26.10;1.00;;;;;;4974185;28;19932;-63
2023/09/07 01:13:06;;;;;;;;;;;26.10;1.00;;;;;;4976596;28;20012;-63
2023/09/07 01:15:33;;;;;;;;;;;26.10;1.00;;;;;;4991171;28;20328;-63
2023/09/07 01:18:00;;;;;;;;;;;26.10;1.00;;;;;;4981514;28;19977;-63
2023/09/07 01:20:47;;;;;;;;;;;26.10;1.00;;;;;;4975005;28;20465;-64
2023/09/07 01:23:13;;;;;;;;;;;26.10;1.00;;;;;;4975130;28;19927;-64
2023/09/07 01:25:40;;;;;;;;;;;26.10;1.00;;;;;;4990835;28;19926;-63
2023/09/07 01:28:07;;;;;;;;;;;26.10;1.00;;;;;;4976278;28;20346;-63
2023/09/07 01:30:35;;;;;;;;;;;26.00;1.00;;;;;;4958735;28;19954;-62
2023/09/07 01:33:03;;;;;;;;;;;26.00;1.00;;;;;;4976034;28;19969;-63
2023/09/07 01:35:31;;;;;;;;;;;26.10;1.00;;;;;;4958509;28;19958;-63
2023/09/07 01:37:58;;;;;;;;;;;26.00;1.00;;;;;;4958588;28;19933;-63
2023/09/07 01:40:25;;;;;;;;;;;26.00;1.00;;;;;;5028444;22;20014;-62
2023/09/07 01:42:52;;;;;;;;;;;26.00;1.00;;;;;;4956647;29;19933;-63
2023/09/07 01:45:19;;;;;;;;;;;26.00;1.00;;;;;;4938735;29;20382;-61
2023/09/07 01:47:46;;;;;;;;;;;26.00;1.00;;;;;;4939198;29;20017;-63
2023/09/07 01:50:14;;;;;;;;;;;26.00;1.00;;;;;;4939220;29;20302;-63
2023/09/07 01:52:41;;;;;;;;;;;26.00;1.00;;;;;;4939060;29;20029;-62
2023/09/07 01:55:08;;;;;;;;;;;26.00;1.00;;;;;;4939048;28;19958;-63
2023/09/07 01:57:35;;;;;;;;;;;26.00;1.00;;;;;;4938913;29;20294;-62
2023/09/07 02:00:04;;;;;;;;;;;26.00;1.00;;;;;;4939161;29;19927;-62
2023/09/07 02:02:38;;;;;;;;;;;26.00;1.00;;;;;;4956301;29;19926;-63
2023/09/07 02:05:05;;;;;;;;;;;26.00;1.00;;;;;;4937960;28;19926;-62
2023/09/07 02:07:33;;;;;;;;;;;26.00;1.00;;;;;;4939010;28;20306;-62
2023/09/07 02:10:00;;;;;;;;;;;26.00;1.00;;;;;;4986524;23;19926;-63
2023/09/07 02:12:27;;;;;;;;;;;26.00;1.00;;;;;;4994814;28;19925;-62
2023/09/07 02:14:55;;;;;;;;;;;26.00;1.00;;;;;;4994677;28;20287;-62
2023/09/07 02:17:22;;;;;;;;;;;26.00;1.00;;;;;;4977204;28;19926;-62
2023/09/07 02:19:50;;;;;;;;;;;25.90;1.00;;;;;;4994648;28;19965;-62
2023/09/07 02:22:16;;;;;;;;;;;25.90;1.00;;;;;;4994554;28;19926;-63
2023/09/07 02:24:43;;;;;;;;;;;25.90;1.00;;;;;;4977153;28;19933;-62
2023/09/07 02:27:10;;;;;;;;;;;25.90;1.00;;;;;;4982661;28;20444;-62
2023/09/07 02:29:37;;;;;;;;;;;25.90;1.00;;;;;;4979160;28;19925;-62
2023/09/07 02:32:04;;;;;;;;;;;25.90;1.00;;;;;;4976905;28;19965;-62
2023/09/07 02:34:31;;;;;;;;;;;25.90;1.00;;;;;;4976609;28;19980;-61
2023/09/07 02:36:58;;;;;;;;;;;25.90;1.00;;;;;;4976810;28;20449;-62
2023/09/07 02:39:26;;;;;;;;;;;25.90;1.00;;;;;;4976941;28;20412;-62
2023/09/07 02:41:53;;;;;;;;;;;25.90;1.00;;;;;;5106983;23;19972;-63
2023/09/07 02:44:20;;;;;;;;;;;25.90;1.00;;;;;;4976629;28;20203;-63
2023/09/07 02:46:47;;;;;;;;;;;25.90;1.00;;;;;;4960503;28;19930;-62
2023/09/07 02:49:14;;;;;;;;;;;25.90;1.00;;;;;;4957311;28;19953;-63
2023/09/07 02:51:41;;;;;;;;;;;25.90;1.00;;;;;;4957394;28;20024;-63
2023/09/07 02:54:07;;;;;;;;;;;25.90;1.00;;;;;;4957199;28;19936;-61
2023/09/07 02:56:34;;;;;;;;;;;25.90;1.00;;;;;;4957103;28;20378;-62
2023/09/07 02:59:01;;;;;;;;;;;25.90;1.00;;;;;;4974296;28;19926;-62
2023/09/07 03:01:28;;;;;;;;;;;25.90;1.00;;;;;;4957104;28;19933;-62
2023/09/07 03:03:55;;;;;;;;;;;25.90;1.00;;;;;;4956883;28;19926;-61
2023/09/07 03:06:22;;;;;;;;;;;25.80;1.00;;;;;;4956914;28;19926;-61
2023/09/07 03:08:52;;;;;;;;;;;25.80;1.00;;;;;;4974035;28;19934;-62
2023/09/07 03:11:19;;;;;;;;;;;25.80;1.00;;;;;;5390490;23;19945;-63
2023/09/07 03:13:48;;;;;;;;;;;25.80;1.00;;;;;;4956035;28;19926;-62
2023/09/07 03:16:15;;;;;;;;;;;25.80;1.00;;;;;;4962683;28;19930;-63
2023/09/07 03:18:42;;;;;;;;;;;25.80;1.00;;;;;;4953672;29;19926;-63
2023/09/07 03:21:09;;;;;;;;;;;25.80;1.00;;;;;;4953470;29;19926;-62
2023/09/07 03:23:36;;;;;;;;;;;25.80;1.00;;;;;;4948473;29;20033;-61
2023/09/07 03:26:03;;;;;;;;;;;25.80;1.00;;;;;;4937436;29;19970;-62
2023/09/07 03:28:30;;;;;;;;;;;25.80;1.00;;;;;;4937639;29;19933;-62
2023/09/07 03:30:57;;;;;;;;;;;25.80;1.00;;;;;;4954997;29;19982;-62
2023/09/07 03:33:24;;;;;;;;;;;25.80;1.00;;;;;;4937451;29;19970;-63
2023/09/07 03:35:51;;;;;;;;;;;25.80;1.00;;;;;;4952072;28;19926;-63
2023/09/07 03:38:18;;;;;;;;;;;25.80;1.00;;;;;;4934602;29;19960;-63
2023/09/07 03:40:45;;;;;;;;;;;25.80;1.00;;;;;;4953408;29;19927;-62
2023/09/07 03:43:15;;;;;;;;;;;25.80;1.00;;;;;;5057833;23;19914;31
2023/09/07 03:45:42;;;;;;;;;;;25.80;1.00;;;;;;4931605;29;20450;-62
2023/09/07 03:48:09;;;;;;;;;;;25.80;1.00;;;;;;4951851;29;19926;-62
2023/09/07 03:50:37;;;;;;;;;;;25.70;1.00;;;;;;4951327;29;20012;-61
2023/09/07 03:53:04;;;;;;;;;;;25.70;1.00;;;;;;4935204;28;19931;-62
2023/09/07 03:55:40;;;;;;;;;;;25.70;1.00;;;;;;4934428;28;19927;-62
2023/09/07 03:58:06;;;;;;;;;;;25.70;1.00;;;;;;4935416;29;19982;-62
2023/09/07 04:00:33;;;;;;;;;;;25.70;1.00;;;;;;4933988;28;19926;-62
2023/09/07 04:03:00;;;;;;;;;;;25.70;1.00;;;;;;4933978;28;19927;-62
2023/09/07 04:05:27;;;;;;;;;;;25.70;1.00;;;;;;4934950;29;20302;-62
2023/09/07 04:07:54;;;;;;;;;;;25.70;1.00;;;;;;4933766;28;19931;-62
2023/09/07 04:10:20;;;;;;;;;;;25.70;1.00;;;;;;4932089;29;20302;-64
2023/09/07 04:12:47;;;;;;;;;;;25.70;1.00;;;;;;4947399;28;19927;-64
2023/09/07 04:15:14;;;;;;;;;;;25.70;1.00;;;;;;4980289;23;19926;-63
2023/09/07 04:17:42;;;;;;;;;;;25.60;1.00;;;;;;4953292;28;20021;-63
2023/09/07 04:20:11;;;;;;;;;;;25.60;1.00;;;;;;4973458;28;19926;-63
2023/09/07 04:22:39;;;;;;;;;;;25.60;1.00;;;;;;4955493;28;19929;-63
2023/09/07 04:25:06;;;;;;;;;;;25.50;1.00;;;;;;4955898;28;20370;-62
2023/09/07 04:27:34;;;;;;;;;;;25.50;1.00;;;;;;4981012;28;19977;-63
2023/09/07 04:30:04;;;;;;;;;;;25.50;1.00;;;;;;4970765;28;19933;-63
2023/09/07 04:32:31;;;;;;;;;;;25.40;1.00;;;;;;4977088;28;19989;-63
2023/09/07 04:34:59;;;;;;;;;;;25.40;1.00;;;;;;4959486;28;19945;-63
2023/09/07 04:37:26;;;;;;;;;;;25.40;1.00;;;;;;4959840;28;19933;-63
2023/09/07 04:39:53;;;;;;;;;;;25.40;1.00;;;;;;4976120;28;20272;-63
2023/09/07 04:42:21;;;;;;;;;;;25.40;1.00;;;;;;4959687;28;19933;-63
2023/09/07 04:44:50;;;;;;;;;;;25.40;1.00;;;;;;4995521;23;20431;-63
2023/09/07 04:47:17;;;;;;;;;;;25.40;1.00;;;;;;4959556;28;20029;-63
2023/09/07 04:49:48;;;;;;;;;;;25.40;1.00;;;;;;4975571;28;19930;-64
2023/09/07 04:52:15;;;;;;;;;;;25.40;1.00;;;;;;4959617;28;20382;-63
2023/09/07 04:54:43;;;;;;;;;;;25.40;1.00;;;;;;4976447;28;19926;-63
2023/09/07 04:57:10;;;;;;;;;;;25.40;1.00;;;;;;4951508;28;19926;-64
2023/09/07 04:59:37;;;;;;;;;;;25.40;1.00;;;;;;4973916;28;19926;-63
2023/09/07 05:02:04;;;;;;;;;;;25.30;1.00;;;;;;4958462;28;19953;-63
2023/09/07 05:04:31;;;;;;;;;;;25.10;1.00;;;;;;4958386;28;19926;-63
2023/09/07 05:06:59;;;;;;;;;;;25.00;1.00;;;;;;4956425;28;19973;-63
2023/09/07 05:09:28;;;;;;;;;;;24.90;1.00;;;;;;4970296;28;19984;-63
2023/09/07 05:11:55;;;;;;;;;;;24.90;1.00;;;;;;4974586;28;19934;-63
2023/09/07 05:14:23;;;;;;;;;;;24.80;1.00;;;;;;4975341;28;20282;-63
2023/09/07 05:16:49;;;;;;;;;;;24.80;1.00;;;;;;5599750;23;19932;-62
2023/09/07 05:19:16;;;;;;;;;;;24.80;1.00;;;;;;4978475;28;19984;-63
2023/09/07 05:21:44;;;;;;;;;;;24.70;1.00;;;;;;4977978;28;20393;-63
2023/09/07 05:24:12;;;;;;;;;;;24.70;1.00;;;;;;4978281;28;19980;-63
2023/09/07 05:26:39;;;;;;;;;;;24.70;1.00;;;;;;4963231;28;19926;-63
2023/09/07 05:29:06;;;;;;;;;;;24.70;1.00;;;;;;4942903;28;19927;-63
2023/09/07 05:31:33;;;;;;;;;;;24.60;1.00;;;;;;4958694;28;19926;-63
2023/09/07 05:34:00;;;;;;;;;;;24.60;1.00;;;;;;4958491;28;19930;-63
2023/09/07 05:36:27;;;;;;;;;;;24.60;1.00;;;;;;4958524;28;19964;-63
2023/09/07 05:38:54;;;;;;;;;;;24.60;1.00;;;;;;4956215;28;19930;-63
2023/09/07 05:41:21;;;;;;;;;;;24.60;1.00;;;;;;4961213;28;20321;-63
2023/09/07 05:43:49;;;;;;;;;;;24.60;1.00;;;;;;4958567;28;19969;-64
2023/09/07 05:46:15;;;;;;;;;;;24.60;1.00;;;;;;4958280;28;19930;-64
2023/09/07 05:48:42;;;;;;;;;;;24.60;1.00;;;;;;5440889;23;19935;-62
2023/09/07 05:51:09;;;;;;;;;;;24.50;1.00;;;;;;4998111;28;19969;-63
2023/09/07 05:53:36;;;;;;;;;;;24.50;1.00;;;;;;4958144;28;20301;-63
2023/09/07 05:56:03;;;;;;;;;;;24.50;1.00;;;;;;4964694;28;20032;-63
2023/09/07 05:58:29;;;;;;;;;;;24.50;1.00;;;;;;4970423;28;20283;-63
2023/09/07 06:00:57;;;;;;;;;;;24.50;1.00;;;;;;4974901;28;19973;-62
2023/09/07 06:03:24;;;;;;;;;;;24.50;1.00;;;;;;4977063;28;20051;-64
2023/09/07 06:05:51;;;;;;;;;;;24.50;1.00;;;;;;4975067;28;20021;-64
2023/09/07 06:08:18;;;;;;;;;;;24.50;1.00;;;;;;4974357;28;20283;-64
2023/09/07 06:10:44;;;;;;;;;;;24.50;1.00;;;;;;4974178;28;19926;-64
2023/09/07 06:13:11;;;;;;;;;;;24.50;1.00;;;;;;4974248;28;19932;-64
2023/09/07 06:15:38;;;;;;;;;;;24.50;1.00;;;;;;4973827;28;19965;-64
2023/09/07 06:18:05;;;;;;;;;;;24.50;1.00;;;;;;4973815;28;19930;-64
2023/09/07 06:23:22;;;;;;;;;;;24.50;1.00;;;;;;5196231;23;19953;-63
2023/09/07 06:25:49;;;;;;;;;;;24.50;1.00;;;;;;4968650;28;19926;-62
2023/09/07 06:28:16;;;;;;;;;;;24.50;1.00;;;;;;4957690;28;19933;-63
2023/09/07 06:30:43;;;;;;;;;;;24.50;1.00;;;;;;4974842;28;20395;-62
2023/09/07 06:33:10;;;;;;;;;;;24.50;1.00;;;;;;4964928;28;21145;-63
2023/09/07 06:35:37;;;;;;;;;;;24.50;1.00;;;;;;4973395;28;19930;-64
2023/09/07 06:38:04;;;;;;;;;;;24.50;1.00;;;;;;4973919;28;19937;-64
2023/09/07 06:40:31;;;;;;;;;;;24.50;1.00;;;;;;4973553;28;19927;-64
2023/09/07 06:42:58;;;;;;;;;;;24.50;1.00;;;;;;4974839;28;19926;-63
2023/09/07 06:45:26;;;;;;;;;;;24.50;1.00;;;;;;4957104;28;20344;-64
2023/09/07 06:47:53;;;;;;;;;;;24.50;1.00;;;;;;4957117;28;19930;-63
2023/09/07 06:50:23;;;;;;;;;;;24.50;1.00;;;;;;4958579;28;20297;-64
2023/09/07 06:52:51;;;;;;;;;;;24.50;1.00;;;;;;4958994;28;19926;-65
2023/09/07 06:55:18;;;;;;;;;;;24.50;1.00;;;;;;5230001;23;19972;-63
2023/09/07 06:57:45;;;;;;;;;;;24.50;1.00;;;;;;4993712;28;19930;-63
2023/09/07 07:00:13;;;;;;;;;;;24.50;1.00;;;;;;4994396;28;19989;-63
2023/09/07 07:02:40;;;;;;;;;;;24.50;1.00;;;;;;4993381;28;19933;-64
2023/09/07 07:05:08;;;;;;;;;;;24.50;1.00;;;;;;4977559;28;19992;-63
2023/09/07 07:07:35;;;;;;;;;;;24.50;1.00;;;;;;4976459;28;19925;-63
2023/09/07 07:10:03;;;;;;;;;;;24.50;1.00;;;;;;4992982;28;19936;-62
2023/09/07 07:12:34;;;;;;;;;;;24.50;1.00;;;;;;4975109;28;19925;-63
2023/09/07 07:15:02;;;;;;;;;;;24.50;1.00;;;;;;4975946;28;19969;-63
2023/09/07 07:17:29;;;;;;;;;;;24.50;1.00;;;;;;4977746;28;19944;-62
2023/09/07 07:19:56;;;;;;;;;;;24.50;1.00;;;;;;4992321;28;19925;-63
2023/09/07 07:22:24;;;;;;;;;;;24.50;1.00;;;;;;4993383;28;19980;-62
2023/09/07 07:24:51;;;;;;;;;;;24.50;1.00;;;;;;4991969;28;19926;-63
2023/09/07 07:27:20;;;;;;;;;;;24.50;1.00;;;;;;5270318;23;19933;-63
2023/09/07 07:29:46;;;;;;;;;;;24.50;1.00;;;;;;4992112;28;19926;-63
2023/09/07 07:32:13;;;;;;;;;;;24.50;1.00;;;;;;4991904;28;19925;-63
2023/09/07 07:34:41;;;;;;;;;;;24.50;1.00;;;;;;4975795;28;19932;-63
2023/09/07 07:37:08;;;;;;;;;;;24.50;1.00;;;;;;4975645;28;19925;-62
2023/09/07 07:39:34;;;;;;;;;;;24.50;1.00;;;;;;4976093;28;20029;-62
2023/09/07 07:42:03;;;;;;;;;;;24.50;1.00;;;;;;4975691;28;19932;-63
2023/09/07 07:44:30;;;;;;;;;;;24.50;1.00;;;;;;4975464;28;19926;-62
2023/09/07 07:46:57;;;;;;;;;;;24.50;1.00;;;;;;4975322;28;19936;-62
2023/09/07 07:49:24;;;;;;;;;;;24.50;1.00;;;;;;4975658;28;20441;-62
2023/09/07 07:51:53;;;;;;;;;;;24.50;1.00;;;;;;4975688;28;19925;-63
2023/09/07 07:54:20;;;;;;;;;;;24.50;1.00;;;;;;4975606;28;19926;-62
2023/09/07 07:56:46;;;;;;;;;;;24.50;1.00;;;;;;4975752;28;20397;-64
2023/09/07 07:59:13;;;;;;;;;;;24.50;1.00;;;;;;5022796;23;19953;-63
2023/09/07 08:01:40;;;;;;;;;;;24.60;1.00;;;;;;4975156;28;19948;-62
2023/09/07 08:04:08;;;;;;;;;;;24.60;1.00;;;;;;4992009;28;19925;-62
2023/09/07 08:06:34;;;;;;;;;;;24.50;1.00;;;;;;4947222;28;19966;-62
2023/09/07 08:09:02;;;;;;;;;;;24.60;1.00;;;;;;4973431;28;20316;-63
2023/09/07 08:11:28;;;;;;;;;;;24.60;1.00;;;;;;4956387;28;20378;-63
2023/09/07 08:13:55;;;;;;;;;;;24.60;1.00;;;;;;4948808;29;20029;-63
2023/09/07 08:16:22;;;;;;;;;;;24.60;1.00;;;;;;4947891;28;20235;-63
2023/09/07 08:18:50;;;;;;;;;;;24.60;1.00;;;;;;4956127;28;20375;-64
2023/09/07 08:21:18;;;;;;;;;;;24.60;1.00;;;;;;4955989;28;19926;-63
2023/09/07 08:23:45;;;;;;;;;;;24.60;1.00;;;;;;4956109;28;19962;-61
2023/09/07 08:26:14;;;;;;;;;;;24.60;1.00;;;;;;4955751;28;20306;-63
2023/09/07 08:28:46;;;;;;;;;;;24.60;1.00;;;;;;4955891;28;19930;-62
2023/09/07 08:31:20;;;;;;;;;;;24.60;1.00;;;;;;5085518;23;20031;-63
2023/09/07 08:33:51;;;;;;;;;;;24.60;1.00;;;;;;4992963;28;19960;-63
2023/09/07 08:36:18;;;;;;;;;;;24.70;1.00;;;;;;5000771;28;19932;-62
2023/09/07 08:38:44;;;;;;;;;;;24.70;1.00;;;;;;4992875;28;20016;-64
2023/09/07 08:41:12;;;;;;;;;;;24.70;1.00;;;;;;4992658;28;19926;-63
2023/09/07 08:43:45;;;;;;;;;;;24.70;1.00;;;;;;4992751;28;19926;-62
2023/09/07 08:46:18;;;;;;;;;;;24.70;1.00;;;;;;4992945;28;20329;-62
2023/09/07 08:48:46;;;;;;;;;;;24.70;1.00;;;;;;4992572;28;19958;-64
2023/09/07 08:51:14;;;;;;;;;;;24.70;1.00;;;;;;4992369;28;20389;-63
2023/09/07 08:53:45;;;;;;;;;;;24.70;1.00;;;;;;4992470;28;20408;-63
2023/09/07 08:56:13;;;;;;;;;;;24.70;1.00;;;;;;4992495;28;19968;-63
2023/09/07 08:58:44;;;;;;;;;;;24.80;1.00;;;;;;4992668;28;20289;-65
2023/09/07 09:01:12;;;;;;;;;;;24.80;1.00;;;;;;4992995;28;19949;-62
2023/09/07 09:03:41;;;;;;;;;;;24.80;1.00;;;;;;5000507;28;19981;-63
2023/09/07 09:06:08;;;;;;;;;;;24.80;1.00;;;;;;4992230;28;19961;-63
2023/09/07 09:08:45;;;;;;;;;;;24.80;1.00;;;;;;4992643;28;20293;-63
2023/09/07 09:11:12;;;;;;;;;;;24.80;1.00;;;;;;4993119;28;19933;-63
2023/09/07 09:13:40;;;;;;;;;;;24.80;1.00;;;;;;4994566;28;19926;-63
2023/09/07 09:16:07;;;;;;;;;;;24.80;1.00;;;;;;4996416;28;19930;-63
2023/09/07 09:18:34;;;;;;;;;;;24.90;1.00;;;;;;4996558;28;20471;-62
2023/09/07 09:21:01;;;;;;;;;;;24.90;1.00;;;;;;4996467;28;20271;-63
2023/09/07 09:23:34;;;;;;;;;;;24.90;1.00;;;;;;4995222;28;19933;-63
2023/09/07 09:26:03;;;;;;;;;;;24.90;1.00;;;;;;4995994;28;20403;-63
2023/09/07 09:28:34;;;;;;;;;;;24.90;1.00;;;;;;4996174;28;19926;-63
2023/09/07 09:33:35;;;;;;;;;;;24.90;1.00;;;;;;4973050;28;19974;-63
2023/09/07 09:36:02;;;;;;;;;;;25.00;1.00;;;;;;4976263;28;20374;-63
2023/09/07 09:38:31;;;;;;;;;;;25.00;1.00;;;;;;4976536;28;19926;-63
2023/09/07 09:40:59;;;;;;;;;;;25.00;1.00;;;;;;4976081;28;19926;-62
2023/09/07 09:43:26;;;;;;;;;;;24.90;1.00;;;;;;4976606;28;20041;-62
2023/09/07 09:45:53;;;;;;;;;;;25.00;1.00;;;;;;4976020;28;19929;-63
2023/09/07 09:48:20;;;;;;;;;;;25.00;1.00;;;;;;4975859;28;20020;-62
2023/09/07 09:50:48;;;;;;;;;;;25.00;1.00;;;;;;4975942;28;19933;-63
2023/09/07 09:53:18;;;;;;;;;;;25.00;1.00;;;;;;4975638;28;19989;-63
2023/09/07 09:55:49;;;;;;;;;;;25.00;1.00;;;;;;4976425;28;20445;-63
2023/09/07 09:58:16;;;;;;;;;;;25.00;1.00;;;;;;4977134;28;20297;-64
2023/09/07 10:00:43;;;;;;;;;;;25.10;1.00;;;;;;4976985;28;20024;-63
2023/09/07 10:06:07;;;;;;;;;;;25.10;1.00;;;;;;4941091;26;19934;-64
2023/09/07 10:08:34;;;;;;;;;;;25.10;1.00;;;;;;4956120;28;19930;-63
2023/09/07 10:11:06;;;;;;;;;;;25.10;1.00;;;;;;4956368;28;20022;-63
2023/09/07 10:13:33;;;;;;;;;;;25.10;1.00;;;;;;4956073;28;20379;-63
2023/09/07 10:16:04;;;;;;;;;;;25.10;1.00;;;;;;4955898;29;20314;-63
2023/09/07 10:18:35;;;;;;;;;;;25.10;1.00;;;;;;4955990;28;20406;-63
2023/09/07 10:21:02;;;;;;;;;;;25.10;1.00;;;;;;4956080;28;19954;-63
2023/09/07 10:23:35;;;;;;;;;;;25.10;1.00;;;;;;4956025;28;19965;-63
2023/09/07 10:26:04;;;;;;;;;;;25.10;1.00;;;;;;4954803;28;20313;-63
2023/09/07 10:28:33;;;;;;;;;;;25.10;1.00;;;;;;4955729;28;19934;-63
2023/09/07 10:31:03;;;;;;;;;;;25.10;1.00;;;;;;4955896;29;19933;-63
2023/09/07 10:36:28;;;;;;;;;;;25.10;1.00;;;;;;4921332;29;19927;-64
2023/09/07 10:38:55;;;;;;;;;;;25.10;1.00;;;;;;4917606;29;19927;-63
2023/09/07 10:41:22;;;;;;;;;;;25.10;1.00;;;;;;4917402;29;19927;-63
2023/09/07 10:43:56;;;;;;;;;;;25.10;1.00;;;;;;4917244;29;20446;-63
2023/09/07 10:46:23;;;;;;;;;;;25.10;1.00;;;;;;4917285;29;19934;-63
2023/09/07 10:48:51;;;;;;;;;;;25.10;1.00;;;;;;4917263;29;19934;-63
2023/09/07 10:51:18;;;;;;;;;;;25.10;1.00;;;;;;4917176;29;19927;-63
2023/09/07 10:53:45;;;;;;;;;;;25.10;1.00;;;;;;4917334;29;19933;-62
2023/09/07 10:56:12;;;;;;;;;;;25.10;1.00;;;;;;4917051;29;19927;-63
2023/09/07 10:58:41;;;;;;;;;;;25.10;1.00;;;;;;4917270;29;20438;-63
2023/09/07 11:01:09;;;;;;;;;;;25.10;1.00;;;;;;4917388;29;19927;-63
2023/09/07 11:03:36;;;;;;;;;;;25.10;1.00;;;;;;4917152;29;19934;-63
2023/09/07 11:06:05;;;;;;;;;;;25.10;1.00;;;;;;5084343;22;19929;-63
2023/09/07 11:08:33;;;;;;;;;;;25.10;1.00;;;;;;4993702;28;19988;-63
2023/09/07 11:11:02;;;;;;;;;;;25.20;1.00;;;;;;4993629;28;20374;-64
2023/09/07 11:13:29;;;;;;;;;;;25.20;1.00;;;;;;4993708;28;19926;-64
2023/09/07 11:15:57;;;;;;;;;;;25.20;1.00;;;;;;4993508;28;20207;-63
2023/09/07 11:18:25;;;;;;;;;;;25.20;1.00;;;;;;4993698;28;20279;-63
2023/09/07 11:20:52;;;;;;;;;;;25.20;1.00;;;;;;4993428;28;19937;-63
2023/09/07 11:23:20;;;;;;;;;;;25.20;1.00;;;;;;4993413;28;20071;-64
2023/09/07 11:25:47;;;;;;;;;;;25.20;1.00;;;;;;4993241;28;19948;-63
2023/09/07 11:28:18;;;;;;;;;;;25.20;1.00;;;;;;4993592;28;19925;-63
2023/09/07 11:30:49;;;;;;;;;;;25.10;1.00;;;;;;4993716;28;19980;-63
2023/09/07 11:33:16;;;;;;;;;;;25.10;1.00;;;;;;4993586;28;19926;-62
2023/09/07 11:35:43;;;;;;;;;;;25.20;1.00;;;;;;4992501;28;19965;-63
2023/09/07 11:38:12;;;;;;;;;;;25.20;1.00;;;;;;4992995;28;20412;-63
2023/09/07 11:40:39;;;;;;;;;;;25.10;1.00;;;;;;4992948;28;19932;-63
2023/09/07 11:43:06;;;;;;;;;;;25.20;1.00;;;;;;4993198;28;20301;-63
2023/09/07 11:45:32;;;;;;;;;;;25.20;1.00;;;;;;4992654;28;20494;-63
2023/09/07 11:47:59;;;;;;;;;;;25.20;1.00;;;;;;4993160;28;19926;-64
2023/09/07 11:50:29;;;;;;;;;;;25.10;1.00;;;;;;4993120;28;19925;-64
2023/09/07 11:52:56;;;;;;;;;;;25.10;1.00;;;;;;4992983;28;19926;-63
2023/09/07 11:55:23;;;;;;;;;;;25.10;1.00;;;;;;4992695;28;19925;-63
2023/09/07 11:57:51;;;;;;;;;;;25.10;1.00;;;;;;4992907;28;20301;-63
2023/09/07 12:00:19;;;;;;;;;;;25.10;1.00;;;;;;4993161;28;19968;-63
2023/09/07 12:02:45;;;;;;;;;;;25.20;1.00;;;;;;4992900;28;20306;-63
2023/09/07 12:05:14;;;;;;;;;;;25.10;1.00;;;;;;4992407;28;19933;-63
2023/09/07 12:07:43;;;;;;;;;;;25.20;1.00;;;;;;5192565;23;20369;-62
2023/09/07 12:10:10;;;;;;;;;;;25.10;1.00;;;;;;4992990;28;19926;-63
2023/09/07 12:12:37;;;;;;;;;;;25.20;1.00;;;;;;4992808;28;19926;-63
2023/09/07 12:15:04;;;;;;;;;;;25.10;1.00;;;;;;4991180;28;20273;-62
2023/09/07 12:17:31;;;;;;;;;;;25.20;1.00;;;;;;4973281;28;20398;-63
2023/09/07 12:19:59;;;;;;;;;;;25.10;1.00;;;;;;4973333;28;19952;-63
2023/09/07 12:22:26;;;;;;;;;;;25.10;1.00;;;;;;4973242;28;19936;-63
2023/09/07 12:24:53;;;;;;;;;;;25.10;1.00;;;;;;4973064;28;20002;-63
2023/09/07 12:27:39;;;;;;;;;;;25.10;1.00;;;;;;4973287;28;19926;-63
2023/09/07 12:30:20;;;;;;;;;;;25.10;1.00;;;;;;4973287;28;19926;-63
2023/09/07 12:32:47;;;;;;;;;;;25.10;1.00;;;;;;4973280;28;19932;-63
2023/09/07 12:35:14;;;;;;;;;;;25.10;1.00;;;;;;4965113;28;19934;-64
2023/09/07 12:37:42;;;;;;;;;;;25.10;1.00;;;;;;5111978;23;20385;-62
2023/09/07 12:40:15;;;;;;;;;;;25.10;1.00;;;;;;4967963;28;19980;-63
2023/09/07 12:42:43;;;;;;;;;;;25.10;1.00;;;;;;4973333;28;20408;-64
2023/09/07 12:45:11;;;;;;;;;;;25.10;1.00;;;;;;4972882;28;20333;-64
2023/09/07 12:47:38;;;;;;;;;;;25.10;1.00;;;;;;4973267;28;19930;-63
2023/09/07 12:50:06;;;;;;;;;;;25.10;1.00;;;;;;4976773;28;19926;-62
2023/09/07 12:52:36;;;;;;;;;;;25.10;1.00;;;;;;4976683;28;19933;-64
2023/09/07 12:55:03;;;;;;;;;;;25.10;1.00;;;;;;4976586;28;19957;-63
2023/09/07 12:57:30;;;;;;;;;;;25.10;1.00;;;;;;4977106;28;19958;-63
2023/09/07 12:59:57;;;;;;;;;;;25.10;1.00;;;;;;4976733;28;19935;-63
2023/09/07 13:02:24;;;;;;;;;;;25.10;1.00;;;;;;4976615;28;19926;-63
2023/09/07 13:04:53;;;;;;;;;;;25.10;1.00;;;;;;4976832;28;19926;-64
2023/09/07 13:07:20;;;;;;;;;;;25.10;1.00;;;;;;4978206;28;20335;-64
2023/09/07 13:09:47;;;;;;;;;;;25.10;1.00;;;;;;4977946;28;19957;-63
2023/09/07 13:12:14;;;;;;;;;;;25.10;1.00;;;;;;4977832;28;19976;-63
2023/09/07 13:14:40;;;;;;;;;;;25.10;1.00;;;;;;4977707;28;19957;-63
2023/09/07 13:17:12;;;;;;;;;;;25.10;1.00;;;;;;4977363;28;19926;-62
2023/09/07 13:19:39;;;;;;;;;;;25.10;1.00;;;;;;4976451;28;20021;-63
2023/09/07 13:22:07;;;;;;;;;;;25.10;1.00;;;;;;4976209;28;19926;-63
2023/09/07 13:24:34;;;;;;;;;;;25.10;1.00;;;;;;4975490;28;19926;-63
2023/09/07 13:27:03;;;;;;;;;;;25.10;1.00;;;;;;4976211;28;19926;-63
2023/09/07 13:29:31;;;;;;;;;;;25.10;1.00;;;;;;4975968;28;19945;-63
2023/09/07 13:31:58;;;;;;;;;;;25.10;1.00;;;;;;4976170;28;19933;-63
2023/09/07 13:34:25;;;;;;;;;;;25.10;1.00;;;;;;4976067;28;19926;-63
2023/09/07 13:36:53;;;;;;;;;;;25.10;1.00;;;;;;4975851;28;20366;-63
2023/09/07 13:39:20;;;;;;;;;;;25.10;1.00;;;;;;5613190;23;19929;-63
2023/09/07 13:41:47;;;;;;;;;;;25.10;1.00;;;;;;5014588;28;20373;-63
2023/09/07 13:44:14;;;;;;;;;;;25.10;1.00;;;;;;5014987;28;19976;-63
2023/09/07 13:46:43;;;;;;;;;;;25.10;1.00;;;;;;5010897;28;19948;-63
2023/09/07 13:49:11;;;;;;;;;;;25.20;1.00;;;;;;5000119;28;20025;-64
2023/09/07 13:51:39;;;;;;;;;;;25.10;1.00;;;;;;4996302;28;19932;-63
2023/09/07 13:54:06;;;;;;;;;;;25.20;1.00;;;;;;5004696;28;20342;-63
2023/09/07 13:56:34;;;;;;;;;;;25.20;1.00;;;;;;5001436;28;20020;-63
2023/09/07 13:59:01;;;;;;;;;;;25.20;1.00;;;;;;5005816;28;19969;-63
2023/09/07 14:01:28;;;;;;;;;;;25.20;1.00;;;;;;5012052;28;19965;-63
2023/09/07 14:03:54;;;;;;;;;;;25.20;1.00;;;;;;5014582;28;20329;-64
2023/09/07 14:06:23;;;;;;;;;;;25.20;1.00;;;;;;5014279;28;19979;-63
2023/09/07 14:08:51;;;;;;;;;;;25.20;1.00;;;;;;5014312;28;19979;-63
2023/09/07 14:11:18;;;;;;;;;;;25.20;1.00;;;;;;5546914;23;19976;-64
2023/09/07 14:13:44;;;;;;;;;;;25.20;1.00;;;;;;4974726;28;19926;-64
2023/09/07 14:16:11;;;;;;;;;;;25.20;1.00;;;;;;4975353;28;19926;-64
2023/09/07 14:18:38;;;;;;;;;;;25.20;1.00;;;;;;4975248;28;19981;-63
2023/09/07 14:21:05;;;;;;;;;;;25.20;1.00;;;;;;4975228;28;19926;-63
2023/09/07 14:23:31;;;;;;;;;;;25.20;1.00;;;;;;4975356;28;19926;-63
2023/09/07 14:25:58;;;;;;;;;;;25.20;1.00;;;;;;4975047;28;20080;-64
2023/09/07 14:28:25;;;;;;;;;;;25.20;1.00;;;;;;4975200;28;19985;-64
2023/09/07 14:30:54;;;;;;;;;;;25.20;1.00;;;;;;4974938;28;19954;-64
2023/09/07 14:33:21;;;;;;;;;;;25.20;1.00;;;;;;4975025;28;20370;-63
2023/09/07 14:35:53;;;;;;;;;;;25.30;1.00;;;;;;4974735;28;19926;-64
2023/09/07 14:38:20;;;;;;;;;;;25.30;1.00;;;;;;4975089;28;19956;-64
2023/09/07 14:40:49;;;;;;;;;;;25.30;1.00;;;;;;4974794;28;20012;-64
2023/09/07 14:45:53;;;;;;;;;;;25.30;1.00;;;;;;4945035;28;19982;-63
2023/09/07 14:48:20;;;;;;;;;;;25.30;1.00;;;;;;4949075;29;19966;-63
2023/09/07 14:50:46;;;;;;;;;;;25.30;1.00;;;;;;4947418;29;19926;-63
2023/09/07 14:53:13;;;;;;;;;;;25.30;1.00;;;;;;4951675;29;20420;-63